Fissa — FGD5002 — position and weather

sailwx.info

Track history (hours):
 
Tides and Currents Weather Stations Pressure Air Temp Water Temp Dewpoint Dewpoint Depression Visibility Wind Speed Wind Dir Waves Ship Positions

Fissa

Last reported at 2018-Jun-21 13:48 UTC. Time now 2018-Jun-25 15:51 UTC.
Position N 48°24' W 004°26'.

Length 8 m.

Type: Pleasure craft. MMSI: 227169310.

Date/timePositionNaut miles runAvg speedWind from/ knotsBaromVisibWave heightAir tempDewpointWater temp
2018-Jun-21 13:48N 48°24' W 004°26'0 0.0
2018-Jun-21 13:15N 48°24' W 004°26'0 0.0
2018-Jun-21 13:00N 48°24' W 004°26'0 0.0
2018-Jun-21 12:23N 48°24' W 004°26'  
2018-Jun-15 12:53N 48°24' W 004°26'1 0.7
2018-Jun-15 11:53N 48°23' W 004°26'2 5.8
2018-Jun-15 11:30N 48°22' W 004°29'2 4.0
2018-Jun-15 11:00N 48°21' W 004°32'1 1.9
2018-Jun-15 10:29N 48°21' W 004°33'1 1.7
2018-Jun-15 10:01N 48°20' W 004°34'1 2.6
2018-Jun-15 09:31N 48°19' W 004°35'2 3.9
2018-Jun-15 09:00N 48°17' W 004°35'1 0.0
2018-Jun-14 15:51N 48°17' W 004°35'0 0.0
2018-Jun-14 15:30N 48°17' W 004°35'1 1.4
2018-Jun-14 15:00N 48°17' W 004°36'3 5.7
2018-Jun-14 14:31N 48°18' W 004°40'3 6.3
2018-Jun-14 13:58N 48°18' W 004°45'7 6.1
2018-Jun-14 12:48N 48°16' W 004°55'  
Track history (hours):
 
Tides and Currents Weather Stations Pressure Air Temp Water Temp Dewpoint Dewpoint Depression Visibility Wind Speed Wind Dir Waves Ship Positions

Fissa

Last reported at 2018-Jun-21 13:48 UTC. Time now 2018-Jun-25 15:51 UTC.
Position N 48°24' W 004°26'.

Length 8 m.

Type: Pleasure craft. MMSI: 227169310.

Date/timePositionNaut miles runAvg speedWind from/ knotsBaromVisibWave heightAir tempDewpointWater temp
2018-Jun-21 13:48N 48°24' W 004°26'0 0.0
2018-Jun-21 13:15N 48°24' W 004°26'0 0.0
2018-Jun-21 13:00N 48°24' W 004°26'0 0.0
2018-Jun-21 12:23N 48°24' W 004°26'  
2018-Jun-15 12:53N 48°24' W 004°26'1 0.7
2018-Jun-15 11:53N 48°23' W 004°26'2 5.8
2018-Jun-15 11:30N 48°22' W 004°29'2 4.0
2018-Jun-15 11:00N 48°21' W 004°32'1 1.9
2018-Jun-15 10:29N 48°21' W 004°33'1 1.7
2018-Jun-15 10:01N 48°20' W 004°34'1 2.6
2018-Jun-15 09:31N 48°19' W 004°35'2 3.9
2018-Jun-15 09:00N 48°17' W 004°35'1 0.0
2018-Jun-14 15:51N 48°17' W 004°35'0 0.0
2018-Jun-14 15:30N 48°17' W 004°35'1 1.4
2018-Jun-14 15:00N 48°17' W 004°36'3 5.7
2018-Jun-14 14:31N 48°18' W 004°40'3 6.3
2018-Jun-14 13:58N 48°18' W 004°45'7 6.1
2018-Jun-14 12:48N 48°16' W 004°55'  

Dump ship's entire track history